Hrossey — VSTY6 — position and weather

sailwx.info

Track history (hours):
 
Tides and Currents Weather Stations Pressure Air Temp Water Temp Dewpoint Dewpoint Depression Visibility Wind Speed Wind Dir Waves Ship Positions

Hrossey

Operator: NorthLink Orkey & Shetland Ferries Ltd

Last reported at 2018-Feb-22 10:30 UTC. Time now 2018-Feb-22 10:42 UTC.
Position N 57°09' W 002°05'.

Length 125 m; draft 5.3 m.

Type: Ship. MMSI: 235448000.

Date/timePositionNaut miles runAvg speedWind from/ knotsBaromVisibWave heightAir tempDewpointWater temp
2018-Feb-22 10:30N 57°09' W 002°05'0 0.0
2018-Feb-22 10:00N 57°09' W 002°05'0 0.0
2018-Feb-22 09:30N 57°09' W 002°05'0 0.0
2018-Feb-22 09:00N 57°09' W 002°05'0 0.0
2018-Feb-22 08:27N 57°09' W 002°05'0 0.0
2018-Feb-22 07:57N 57°09' W 002°05'0 0.0
2018-Feb-22 07:30N 57°09' W 002°05'0 0.0
2018-Feb-22 07:00N 57°09' W 002°05'1 1.1
2018-Feb-22 06:30N 57°09' W 002°05'613.0
2018-Feb-22 06:00N 57°13' W 001°56'917.2
2018-Feb-22 05:31N 57°20' W 001°48'917.2
2018-Feb-22 05:00N 57°28' W 001°42'1020.6
2018-Feb-22 04:31N 57°39' W 001°42'1122.2
2018-Feb-22 04:01N 57°49' W 001°47'7121.3
2018-Feb-22 00:41N 58°56' W 002°35'422.8
2018-Feb-22 00:31N 58°59' W 002°39'1019.6
2018-Feb-22 00:00N 58°60' W 002°58'0 0.3
2018-Feb-21 23:30N 58°60' W 002°58'0 0.0
2018-Feb-21 23:00N 58°60' W 002°58'0 0.0
2018-Feb-21 22:30N 58°60' W 002°58'5 9.5
2018-Feb-21 22:00N 59°01' W 002°49'77 3.3
2018-Feb-20 22:19N 57°53' W 001°36'414.2
2018-Feb-20 22:00N 57°49' W 001°36'714.7
2018-Feb-20 21:30N 57°41' W 001°36'815.1
2018-Feb-20 21:00N 57°34' W 001°36'714.9
2018-Feb-20 20:30N 57°27' W 001°40'915.3
2018-Feb-20 19:56N 57°19' W 001°49'615.0
2018-Feb-20 19:30N 57°14' W 001°55'714.1
2018-Feb-20 19:00N 57°09' W 002°04'1 1.9
2018-Feb-20 18:29N 57°09' W 002°05'0 0.0
2018-Feb-20 17:58N 57°09' W 002°05'0 0.0
2018-Feb-20 17:31N 57°09' W 002°05'0 0.0
2018-Feb-20 17:01N 57°09' W 002°05'0 0.0
2018-Feb-20 16:31N 57°09' W 002°05'0 0.0
2018-Feb-20 16:01N 57°09' W 002°05'0 0.0
2018-Feb-20 15:31N 57°09' W 002°05'0 0.0
2018-Feb-20 15:01N 57°09' W 002°05'0 0.0
2018-Feb-20 14:31N 57°09' W 002°05'0 0.0
2018-Feb-20 14:01N 57°09' W 002°05'0 0.0
2018-Feb-20 13:31N 57°09' W 002°05'0 0.0
2018-Feb-20 13:01N 57°09' W 002°05'0 0.0
2018-Feb-20 12:31N 57°09' W 002°05'0 0.0
2018-Feb-20 12:01N 57°09' W 002°05'0 0.0
2018-Feb-20 11:31N 57°09' W 002°05'0 0.0
2018-Feb-20 11:01N 57°09' W 002°05'0 0.0
2018-Feb-20 10:31N 57°09' W 002°05'0 0.0
2018-Feb-20 10:00N 57°09' W 002°05'0 0.0
2018-Feb-20 09:31N 57°09' W 002°05'0 0.0
2018-Feb-20 09:01N 57°09' W 002°05'0 0.0
2018-Feb-20 08:31N 57°09' W 002°05'0 0.0
2018-Feb-20 08:01N 57°09' W 002°05'0 0.0
2018-Feb-20 07:30N 57°09' W 002°05'0 0.0
2018-Feb-20 07:01N 57°09' W 002°05'1 1.1
2018-Feb-20 06:30N 57°09' W 002°04'713.5
2018-Feb-20 06:00N 57°13' W 001°56'1414.9
2018-Feb-20 05:06N 57°25' W 001°42'213.9
2018-Feb-20 04:58N 57°27' W 001°41'714.2
2018-Feb-20 04:30N 57°33' W 001°38'914.5
2018-Feb-20 03:54N 57°41' W 001°35'87 3.3
2018-Feb-19 01:12N 59°04' W 002°27'212.0
2018-Feb-19 01:00N 59°02' W 002°30'611.7
2018-Feb-19 00:30N 59°00' W 002°41'713.8
2018-Feb-19 00:00N 59°01' W 002°54'2 4.7
2018-Feb-18 23:30N 58°60' W 002°58'0 0.0
2018-Feb-18 22:58N 58°60' W 002°58'510.1
2018-Feb-18 22:30N 59°01' W 002°49'918.2
2018-Feb-18 22:00N 58°55' W 002°35'6821.8
2018-Feb-18 18:54N 57°52' W 001°50'1024.9
2018-Feb-18 18:30N 57°42' W 001°46'2623.6
2018-Feb-18 17:25N 57°17' W 001°52'1023.1
2018-Feb-18 17:00N 57°09' W 002°03'1 2.7
2018-Feb-18 16:28N 57°09' W 002°05'0 0.0
2018-Feb-18 15:58N 57°09' W 002°05'0 0.0
2018-Feb-18 15:30N 57°09' W 002°05'0 0.0
2018-Feb-18 15:00N 57°09' W 002°05'0 0.0
2018-Feb-18 14:30N 57°09' W 002°05'0 0.0
2018-Feb-18 14:00N 57°09' W 002°05'0 0.0
2018-Feb-18 13:30N 57°09' W 002°05'0 0.0
2018-Feb-18 13:00N 57°09' W 002°05'0 0.0
2018-Feb-18 12:30N 57°09' W 002°05'0 0.0
2018-Feb-18 12:00N 57°09' W 002°05'0 0.0
2018-Feb-18 11:30N 57°09' W 002°05'0 0.0
2018-Feb-18 11:00N 57°09' W 002°05'0 0.0
2018-Feb-18 10:30N 57°09' W 002°05'0 0.0
2018-Feb-18 10:00N 57°09' W 002°05'0 0.0
2018-Feb-18 09:30N 57°09' W 002°05'0 0.0
2018-Feb-18 09:00N 57°09' W 002°05'0 0.0
2018-Feb-18 08:30N 57°09' W 002°05'0 0.0
2018-Feb-18 08:00N 57°09' W 002°05'0 0.0
2018-Feb-18 07:30N 57°09' W 002°05'0 0.0
2018-Feb-18 07:00N 57°09' W 002°05'1 1.0
2018-Feb-18 06:30N 57°09' W 002°05'612.7
2018-Feb-18 06:01N 57°13' W 001°56'2714.8
2018-Feb-18 04:10N 57°38' W 001°37'314.7
2018-Feb-18 03:59N 57°41' W 001°37'815.3
2018-Feb-18 03:25N 57°49' W 001°36'4 0.1
2018-Feb-16 22:14N 57°53' W 001°37'415.4
2018-Feb-16 21:57N 57°49' W 001°37'715.6
2018-Feb-16 21:30N 57°42' W 001°37'816.1
2018-Feb-16 21:00N 57°34' W 001°37'1815.9
2018-Feb-16 19:52N 57°17' W 001°51'616.4
2018-Feb-16 19:30N 57°13' W 001°57'611.4
2018-Feb-16 19:01N 57°09' W 002°05'0 0.9
2018-Feb-16 18:30N 57°09' W 002°05'0 0.0
2018-Feb-16 18:00N 57°09' W 002°05'0 0.0
2018-Feb-16 17:31N 57°09' W 002°05'0 0.0
2018-Feb-16 17:00N 57°09' W 002°05'0 0.0
2018-Feb-16 16:30N 57°09' W 002°05'0 0.0
2018-Feb-16 16:00N 57°09' W 002°05'0 0.0
2018-Feb-16 15:30N 57°09' W 002°05'0 0.0
2018-Feb-16 15:00N 57°09' W 002°05'0 0.0
2018-Feb-16 14:30N 57°09' W 002°05'0 0.0
2018-Feb-16 14:00N 57°09' W 002°05'0 0.0
2018-Feb-16 13:30N 57°09' W 002°05'0 0.0
2018-Feb-16 13:00N 57°09' W 002°05'0 0.0
2018-Feb-16 12:30N 57°09' W 002°05'0 0.0
2018-Feb-16 12:00N 57°09' W 002°05'0 0.0
2018-Feb-16 11:30N 57°09' W 002°05'0 0.0
2018-Feb-16 11:00N 57°09' W 002°05'0 0.0
2018-Feb-16 10:30N 57°09' W 002°05'0 0.0
2018-Feb-16 10:00N 57°09' W 002°05'0 0.0
2018-Feb-16 09:30N 57°09' W 002°05'0 0.0
2018-Feb-16 09:00N 57°09' W 002°05'0 0.0
2018-Feb-16 08:30N 57°09' W 002°05'0 0.0
2018-Feb-16 08:00N 57°09' W 002°05'0 0.0
2018-Feb-16 07:30N 57°09' W 002°05'0 0.0
2018-Feb-16 07:00N 57°09' W 002°05'1 1.1
2018-Feb-16 06:30N 57°09' W 002°04'612.2
2018-Feb-16 06:00N 57°13' W 001°56'1614.2
2018-Feb-16 04:53N 57°26' W 001°40'514.1
2018-Feb-16 04:30N 57°31' W 001°36'814.5
2018-Feb-16 03:56N 57°39' W 001°35'15 0.8
2018-Feb-15 08:17N 57°54' W 001°37'722.8
2018-Feb-15 07:59N 57°47' W 001°37'1123.0
2018-Feb-15 07:30N 57°36' W 001°37'1923.3
2018-Feb-15 06:41N 57°17' W 001°45'423.8
2018-Feb-15 06:30N 57°14' W 001°47'1223.9
2018-Feb-15 06:00N 57°02' W 001°55'2524.3
2018-Feb-15 05:00N 56°39' W 002°10'1223.6
2018-Feb-15 04:31N 56°28' W 002°18'1223.0
2018-Feb-15 04:01N 56°18' W 002°26'1223.3
2018-Feb-15 03:31N 56°11' W 002°42'1223.1
2018-Feb-15 03:01N 56°05' W 003°01'2 3.6
2018-Feb-15 02:30N 56°05' W 003°04'1 1.7
2018-Feb-15 02:00N 56°05' W 003°02'2 4.6
2018-Feb-15 01:30N 56°04' W 003°06'4 8.3
2018-Feb-15 01:00N 56°02' W 003°13'6 0.2
2018-Feb-13 11:16N 56°00' W 003°23'2 6.9
2018-Feb-13 11:00N 56°01' W 003°20'4 7.8
2018-Feb-13 10:30N 56°01' W 003°13'2 4.2
2018-Feb-13 09:59N 55°59' W 003°11'0 0.9
2018-Feb-13 09:30N 55°59' W 003°11'0 0.0
2018-Feb-13 09:00N 55°59' W 003°11'0 0.0
2018-Feb-13 08:30N 55°59' W 003°11'0 0.0
2018-Feb-13 08:00N 55°59' W 003°11'0 0.0
2018-Feb-13 07:30N 55°59' W 003°11'0 0.0
2018-Feb-13 07:00N 55°59' W 003°11'0 0.0
2018-Feb-13 06:30N 55°59' W 003°11'0 0.0
2018-Feb-13 06:00N 55°59' W 003°11'0 0.0
2018-Feb-13 05:30N 55°59' W 003°11'0 0.0
2018-Feb-13 05:00N 55°59' W 003°11'0 0.0
2018-Feb-13 04:30N 55°59' W 003°11'0 0.0
2018-Feb-13 04:00N 55°59' W 003°11'0 0.0
2018-Feb-13 03:30N 55°59' W 003°11'0 0.0
2018-Feb-13 03:00N 55°59' W 003°11'0 0.0
2018-Feb-13 02:30N 55°59' W 003°11'0 0.0
2018-Feb-13 02:00N 55°59' W 003°11'0 0.0
2018-Feb-13 01:30N 55°59' W 003°11'0 0.0
2018-Feb-13 01:00N 55°59' W 003°11'0 0.0
2018-Feb-13 00:30N 55°59' W 003°11'0 0.0
2018-Feb-13 00:00N 55°59' W 003°11'0 0.0
2018-Feb-12 23:30N 55°59' W 003°11'0 0.0
2018-Feb-12 23:00N 55°59' W 003°11'0 0.0
2018-Feb-12 22:30N 55°59' W 003°11'0 0.0
2018-Feb-12 22:00N 55°59' W 003°11'0 0.0
2018-Feb-12 21:30N 55°59' W 003°11'0 0.0
2018-Feb-12 21:00N 55°59' W 003°11'0 0.0
2018-Feb-12 20:30N 55°59' W 003°11'0 0.0
2018-Feb-12 20:00N 55°59' W 003°11'0 0.0
2018-Feb-12 19:30N 55°59' W 003°11'0 0.0
2018-Feb-12 19:00N 55°59' W 003°11'0 0.0
2018-Feb-12 18:30N 55°59' W 003°11'0 0.0
2018-Feb-12 18:00N 55°59' W 003°11'0 0.0
2018-Feb-12 17:30N 55°59' W 003°11'0 0.0
2018-Feb-12 17:00N 55°59' W 003°11'0 0.0
2018-Feb-12 16:30N 55°59' W 003°11'0 0.0
2018-Feb-12 16:00N 55°59' W 003°11'0 0.0
2018-Feb-12 15:30N 55°59' W 003°11'0 0.0
2018-Feb-12 15:00N 55°59' W 003°11'0 0.0
2018-Feb-12 14:30N 55°59' W 003°11'0 0.0
2018-Feb-12 14:00N 55°59' W 003°11'0 0.0
2018-Feb-12 13:30N 55°59' W 003°11'0 0.0
2018-Feb-12 13:00N 55°59' W 003°11'0 0.0
2018-Feb-12 12:30N 55°59' W 003°11'0 0.0
2018-Feb-12 11:55N 55°59' W 003°11'0 0.0
2018-Feb-12 11:29N 55°59' W 003°11'0 0.0
2018-Feb-12 10:59N 55°59' W 003°11'  
Track history (hours):
 
Tides and Currents Weather Stations Pressure Air Temp Water Temp Dewpoint Dewpoint Depression Visibility Wind Speed Wind Dir Waves Ship Positions

Hrossey

Operator: NorthLink Orkey & Shetland Ferries Ltd

Last reported at 2018-Feb-22 10:30 UTC. Time now 2018-Feb-22 10:42 UTC.
Position N 57°09' W 002°05'.

Length 125 m; draft 5.3 m.

Type: Ship. MMSI: 235448000.

Date/timePositionNaut miles runAvg speedWind from/ knotsBaromVisibWave heightAir tempDewpointWater temp
2018-Feb-22 10:30N 57°09' W 002°05'0 0.0
2018-Feb-22 10:00N 57°09' W 002°05'0 0.0
2018-Feb-22 09:30N 57°09' W 002°05'0 0.0
2018-Feb-22 09:00N 57°09' W 002°05'0 0.0
2018-Feb-22 08:27N 57°09' W 002°05'0 0.0
2018-Feb-22 07:57N 57°09' W 002°05'0 0.0
2018-Feb-22 07:30N 57°09' W 002°05'0 0.0
2018-Feb-22 07:00N 57°09' W 002°05'1 1.1
2018-Feb-22 06:30N 57°09' W 002°05'613.0
2018-Feb-22 06:00N 57°13' W 001°56'917.2
2018-Feb-22 05:31N 57°20' W 001°48'917.2
2018-Feb-22 05:00N 57°28' W 001°42'1020.6
2018-Feb-22 04:31N 57°39' W 001°42'1122.2
2018-Feb-22 04:01N 57°49' W 001°47'7121.3
2018-Feb-22 00:41N 58°56' W 002°35'422.8
2018-Feb-22 00:31N 58°59' W 002°39'1019.6
2018-Feb-22 00:00N 58°60' W 002°58'0 0.3
2018-Feb-21 23:30N 58°60' W 002°58'0 0.0
2018-Feb-21 23:00N 58°60' W 002°58'0 0.0
2018-Feb-21 22:30N 58°60' W 002°58'5 9.5
2018-Feb-21 22:00N 59°01' W 002°49'77 3.3
2018-Feb-20 22:19N 57°53' W 001°36'414.2
2018-Feb-20 22:00N 57°49' W 001°36'714.7
2018-Feb-20 21:30N 57°41' W 001°36'815.1
2018-Feb-20 21:00N 57°34' W 001°36'714.9
2018-Feb-20 20:30N 57°27' W 001°40'915.3
2018-Feb-20 19:56N 57°19' W 001°49'615.0
2018-Feb-20 19:30N 57°14' W 001°55'714.1
2018-Feb-20 19:00N 57°09' W 002°04'1 1.9
2018-Feb-20 18:29N 57°09' W 002°05'0 0.0
2018-Feb-20 17:58N 57°09' W 002°05'0 0.0
2018-Feb-20 17:31N 57°09' W 002°05'0 0.0
2018-Feb-20 17:01N 57°09' W 002°05'0 0.0
2018-Feb-20 16:31N 57°09' W 002°05'0 0.0
2018-Feb-20 16:01N 57°09' W 002°05'0 0.0
2018-Feb-20 15:31N 57°09' W 002°05'0 0.0
2018-Feb-20 15:01N 57°09' W 002°05'0 0.0
2018-Feb-20 14:31N 57°09' W 002°05'0 0.0
2018-Feb-20 14:01N 57°09' W 002°05'0 0.0
2018-Feb-20 13:31N 57°09' W 002°05'0 0.0
2018-Feb-20 13:01N 57°09' W 002°05'0 0.0
2018-Feb-20 12:31N 57°09' W 002°05'0 0.0
2018-Feb-20 12:01N 57°09' W 002°05'0 0.0
2018-Feb-20 11:31N 57°09' W 002°05'0 0.0
2018-Feb-20 11:01N 57°09' W 002°05'0 0.0
2018-Feb-20 10:31N 57°09' W 002°05'0 0.0
2018-Feb-20 10:00N 57°09' W 002°05'0 0.0
2018-Feb-20 09:31N 57°09' W 002°05'0 0.0
2018-Feb-20 09:01N 57°09' W 002°05'0 0.0
2018-Feb-20 08:31N 57°09' W 002°05'0 0.0
2018-Feb-20 08:01N 57°09' W 002°05'0 0.0
2018-Feb-20 07:30N 57°09' W 002°05'0 0.0
2018-Feb-20 07:01N 57°09' W 002°05'1 1.1
2018-Feb-20 06:30N 57°09' W 002°04'713.5
2018-Feb-20 06:00N 57°13' W 001°56'1414.9
2018-Feb-20 05:06N 57°25' W 001°42'213.9
2018-Feb-20 04:58N 57°27' W 001°41'714.2
2018-Feb-20 04:30N 57°33' W 001°38'914.5
2018-Feb-20 03:54N 57°41' W 001°35'87 3.3
2018-Feb-19 01:12N 59°04' W 002°27'212.0
2018-Feb-19 01:00N 59°02' W 002°30'611.7
2018-Feb-19 00:30N 59°00' W 002°41'713.8
2018-Feb-19 00:00N 59°01' W 002°54'2 4.7
2018-Feb-18 23:30N 58°60' W 002°58'0 0.0
2018-Feb-18 22:58N 58°60' W 002°58'510.1
2018-Feb-18 22:30N 59°01' W 002°49'918.2
2018-Feb-18 22:00N 58°55' W 002°35'6821.8
2018-Feb-18 18:54N 57°52' W 001°50'1024.9
2018-Feb-18 18:30N 57°42' W 001°46'2623.6
2018-Feb-18 17:25N 57°17' W 001°52'1023.1
2018-Feb-18 17:00N 57°09' W 002°03'1 2.7
2018-Feb-18 16:28N 57°09' W 002°05'0 0.0
2018-Feb-18 15:58N 57°09' W 002°05'0 0.0
2018-Feb-18 15:30N 57°09' W 002°05'0 0.0
2018-Feb-18 15:00N 57°09' W 002°05'0 0.0
2018-Feb-18 14:30N 57°09' W 002°05'0 0.0
2018-Feb-18 14:00N 57°09' W 002°05'0 0.0
2018-Feb-18 13:30N 57°09' W 002°05'0 0.0
2018-Feb-18 13:00N 57°09' W 002°05'0 0.0
2018-Feb-18 12:30N 57°09' W 002°05'0 0.0
2018-Feb-18 12:00N 57°09' W 002°05'0 0.0
2018-Feb-18 11:30N 57°09' W 002°05'0 0.0
2018-Feb-18 11:00N 57°09' W 002°05'0 0.0
2018-Feb-18 10:30N 57°09' W 002°05'0 0.0
2018-Feb-18 10:00N 57°09' W 002°05'0 0.0
2018-Feb-18 09:30N 57°09' W 002°05'0 0.0
2018-Feb-18 09:00N 57°09' W 002°05'0 0.0
2018-Feb-18 08:30N 57°09' W 002°05'0 0.0
2018-Feb-18 08:00N 57°09' W 002°05'0 0.0
2018-Feb-18 07:30N 57°09' W 002°05'0 0.0
2018-Feb-18 07:00N 57°09' W 002°05'1 1.0
2018-Feb-18 06:30N 57°09' W 002°05'612.7
2018-Feb-18 06:01N 57°13' W 001°56'2714.8
2018-Feb-18 04:10N 57°38' W 001°37'314.7
2018-Feb-18 03:59N 57°41' W 001°37'815.3
2018-Feb-18 03:25N 57°49' W 001°36'4 0.1
2018-Feb-16 22:14N 57°53' W 001°37'415.4
2018-Feb-16 21:57N 57°49' W 001°37'715.6
2018-Feb-16 21:30N 57°42' W 001°37'816.1
2018-Feb-16 21:00N 57°34' W 001°37'1815.9
2018-Feb-16 19:52N 57°17' W 001°51'616.4
2018-Feb-16 19:30N 57°13' W 001°57'611.4
2018-Feb-16 19:01N 57°09' W 002°05'0 0.9
2018-Feb-16 18:30N 57°09' W 002°05'0 0.0
2018-Feb-16 18:00N 57°09' W 002°05'0 0.0
2018-Feb-16 17:31N 57°09' W 002°05'0 0.0
2018-Feb-16 17:00N 57°09' W 002°05'0 0.0
2018-Feb-16 16:30N 57°09' W 002°05'0 0.0
2018-Feb-16 16:00N 57°09' W 002°05'0 0.0
2018-Feb-16 15:30N 57°09' W 002°05'0 0.0
2018-Feb-16 15:00N 57°09' W 002°05'0 0.0
2018-Feb-16 14:30N 57°09' W 002°05'0 0.0
2018-Feb-16 14:00N 57°09' W 002°05'0 0.0
2018-Feb-16 13:30N 57°09' W 002°05'0 0.0
2018-Feb-16 13:00N 57°09' W 002°05'0 0.0
2018-Feb-16 12:30N 57°09' W 002°05'0 0.0
2018-Feb-16 12:00N 57°09' W 002°05'0 0.0
2018-Feb-16 11:30N 57°09' W 002°05'0 0.0
2018-Feb-16 11:00N 57°09' W 002°05'0 0.0
2018-Feb-16 10:30N 57°09' W 002°05'0 0.0
2018-Feb-16 10:00N 57°09' W 002°05'0 0.0
2018-Feb-16 09:30N 57°09' W 002°05'0 0.0
2018-Feb-16 09:00N 57°09' W 002°05'0 0.0
2018-Feb-16 08:30N 57°09' W 002°05'0 0.0
2018-Feb-16 08:00N 57°09' W 002°05'0 0.0
2018-Feb-16 07:30N 57°09' W 002°05'0 0.0
2018-Feb-16 07:00N 57°09' W 002°05'1 1.1
2018-Feb-16 06:30N 57°09' W 002°04'612.2
2018-Feb-16 06:00N 57°13' W 001°56'1614.2
2018-Feb-16 04:53N 57°26' W 001°40'514.1
2018-Feb-16 04:30N 57°31' W 001°36'814.5
2018-Feb-16 03:56N 57°39' W 001°35'15 0.8
2018-Feb-15 08:17N 57°54' W 001°37'722.8
2018-Feb-15 07:59N 57°47' W 001°37'1123.0
2018-Feb-15 07:30N 57°36' W 001°37'1923.3
2018-Feb-15 06:41N 57°17' W 001°45'423.8
2018-Feb-15 06:30N 57°14' W 001°47'1223.9
2018-Feb-15 06:00N 57°02' W 001°55'2524.3
2018-Feb-15 05:00N 56°39' W 002°10'1223.6
2018-Feb-15 04:31N 56°28' W 002°18'1223.0
2018-Feb-15 04:01N 56°18' W 002°26'1223.3
2018-Feb-15 03:31N 56°11' W 002°42'1223.1
2018-Feb-15 03:01N 56°05' W 003°01'2 3.6
2018-Feb-15 02:30N 56°05' W 003°04'1 1.7
2018-Feb-15 02:00N 56°05' W 003°02'2 4.6
2018-Feb-15 01:30N 56°04' W 003°06'4 8.3
2018-Feb-15 01:00N 56°02' W 003°13'6 0.2
2018-Feb-13 11:16N 56°00' W 003°23'2 6.9
2018-Feb-13 11:00N 56°01' W 003°20'4 7.8
2018-Feb-13 10:30N 56°01' W 003°13'2 4.2
2018-Feb-13 09:59N 55°59' W 003°11'0 0.9
2018-Feb-13 09:30N 55°59' W 003°11'0 0.0
2018-Feb-13 09:00N 55°59' W 003°11'0 0.0
2018-Feb-13 08:30N 55°59' W 003°11'0 0.0
2018-Feb-13 08:00N 55°59' W 003°11'0 0.0
2018-Feb-13 07:30N 55°59' W 003°11'0 0.0
2018-Feb-13 07:00N 55°59' W 003°11'0 0.0
2018-Feb-13 06:30N 55°59' W 003°11'0 0.0
2018-Feb-13 06:00N 55°59' W 003°11'0 0.0
2018-Feb-13 05:30N 55°59' W 003°11'0 0.0
2018-Feb-13 05:00N 55°59' W 003°11'0 0.0
2018-Feb-13 04:30N 55°59' W 003°11'0 0.0
2018-Feb-13 04:00N 55°59' W 003°11'0 0.0
2018-Feb-13 03:30N 55°59' W 003°11'0 0.0
2018-Feb-13 03:00N 55°59' W 003°11'0 0.0
2018-Feb-13 02:30N 55°59' W 003°11'0 0.0
2018-Feb-13 02:00N 55°59' W 003°11'0 0.0
2018-Feb-13 01:30N 55°59' W 003°11'0 0.0
2018-Feb-13 01:00N 55°59' W 003°11'0 0.0
2018-Feb-13 00:30N 55°59' W 003°11'0 0.0
2018-Feb-13 00:00N 55°59' W 003°11'0 0.0
2018-Feb-12 23:30N 55°59' W 003°11'0 0.0
2018-Feb-12 23:00N 55°59' W 003°11'0 0.0
2018-Feb-12 22:30N 55°59' W 003°11'0 0.0
2018-Feb-12 22:00N 55°59' W 003°11'0 0.0
2018-Feb-12 21:30N 55°59' W 003°11'0 0.0
2018-Feb-12 21:00N 55°59' W 003°11'0 0.0
2018-Feb-12 20:30N 55°59' W 003°11'0 0.0
2018-Feb-12 20:00N 55°59' W 003°11'0 0.0
2018-Feb-12 19:30N 55°59' W 003°11'0 0.0
2018-Feb-12 19:00N 55°59' W 003°11'0 0.0
2018-Feb-12 18:30N 55°59' W 003°11'0 0.0
2018-Feb-12 18:00N 55°59' W 003°11'0 0.0
2018-Feb-12 17:30N 55°59' W 003°11'0 0.0
2018-Feb-12 17:00N 55°59' W 003°11'0 0.0
2018-Feb-12 16:30N 55°59' W 003°11'0 0.0
2018-Feb-12 16:00N 55°59' W 003°11'0 0.0
2018-Feb-12 15:30N 55°59' W 003°11'0 0.0
2018-Feb-12 15:00N 55°59' W 003°11'0 0.0
2018-Feb-12 14:30N 55°59' W 003°11'0 0.0
2018-Feb-12 14:00N 55°59' W 003°11'0 0.0
2018-Feb-12 13:30N 55°59' W 003°11'0 0.0
2018-Feb-12 13:00N 55°59' W 003°11'0 0.0
2018-Feb-12 12:30N 55°59' W 003°11'0 0.0
2018-Feb-12 11:55N 55°59' W 003°11'0 0.0
2018-Feb-12 11:29N 55°59' W 003°11'0 0.0
2018-Feb-12 10:59N 55°59' W 003°11'  

Dump ship's entire track history